sensor_id;sensor_type;location;lat;lon;timestamp;temperature;humidity
75091;DHT22;63674;48.048;8.306;2023-06-24T00:01:03;10.30;99.90
75091;DHT22;63674;48.048;8.306;2023-06-24T00:03:32;10.20;99.90
75091;DHT22;63674;48.048;8.306;2023-06-24T00:06:05;10.10;99.90
75091;DHT22;63674;48.048;8.306;2023-06-24T00:08:34;10.00;99.90
75091;DHT22;63674;48.048;8.306;2023-06-24T00:11:03;10.00;99.90
75091;DHT22;63674;48.048;8.306;2023-06-24T00:13:32;10.00;99.90
75091;DHT22;63674;48.048;8.306;2023-06-24T00:16:02;9.90;99.90
75091;DHT22;63674;48.048;8.306;2023-06-24T00:18:33;9.90;99.90
75091;DHT22;63674;48.048;8.306;2023-06-24T00:21:03;9.80;99.90
75091;DHT22;63674;48.048;8.306;2023-06-24T00:23:32;9.80;99.90
75091;DHT22;63674;48.048;8.306;2023-06-24T00:26:02;9.80;99.90
75091;DHT22;63674;48.048;8.306;2023-06-24T00:28:30;9.70;99.90
75091;DHT22;63674;48.048;8.306;2023-06-24T00:30:59;9.70;99.90
75091;DHT22;63674;48.048;8.306;2023-06-24T00:33:31;9.60;99.90
75091;DHT22;63674;48.048;8.306;2023-06-24T00:36:03;9.60;99.90
75091;DHT22;63674;48.048;8.306;2023-06-24T00:38:33;9.60;99.90
75091;DHT22;63674;48.048;8.306;2023-06-24T00:41:02;9.50;99.90
75091;DHT22;63674;48.048;8.306;2023-06-24T00:43:30;9.50;99.90
75091;DHT22;63674;48.048;8.306;2023-06-24T00:45:59;9.50;99.90
75091;DHT22;63674;48.048;8.306;2023-06-24T00:48:28;9.50;99.90
75091;DHT22;63674;48.048;8.306;2023-06-24T00:50:59;9.40;99.90
75091;DHT22;63674;48.048;8.306;2023-06-24T00:53:28;9.40;99.90
75091;DHT22;63674;48.048;8.306;2023-06-24T00:55:58;9.40;99.90
75091;DHT22;63674;48.048;8.306;2023-06-24T00:58:31;9.40;99.90
75091;DHT22;63674;48.048;8.306;2023-06-24T01:01:01;9.40;99.90
75091;DHT22;63674;48.048;8.306;2023-06-24T01:03:30;9.40;99.90
75091;DHT22;63674;48.048;8.306;2023-06-24T01:06:01;9.40;99.90
75091;DHT22;63674;48.048;8.306;2023-06-24T01:08:29;9.30;99.90
75091;DHT22;63674;48.048;8.306;2023-06-24T01:10:58;9.30;99.90
75091;DHT22;63674;48.048;8.306;2023-06-24T01:13:27;9.20;99.90
75091;DHT22;63674;48.048;8.306;2023-06-24T01:15:58;9.20;99.90
75091;DHT22;63674;48.048;8.306;2023-06-24T01:18:33;9.20;99.90
75091;DHT22;63674;48.048;8.306;2023-06-24T01:21:13;9.20;99.90
75091;DHT22;63674;48.048;8.306;2023-06-24T01:24:01;9.10;99.90
75091;DHT22;63674;48.048;8.306;2023-06-24T01:26:58;9.10;99.90
75091;DHT22;63674;48.048;8.306;2023-06-24T01:30:12;9.10;99.90
75091;DHT22;63674;48.048;8.306;2023-06-24T01:32:55;9.00;99.90
75091;DHT22;63674;48.048;8.306;2023-06-24T01:35:31;8.90;99.90
75091;DHT22;63674;48.048;8.306;2023-06-24T01:38:07;8.90;99.90
75091;DHT22;63674;48.048;8.306;2023-06-24T01:40:43;8.90;99.90
75091;DHT22;63674;48.048;8.306;2023-06-24T01:43:13;8.90;99.90
75091;DHT22;63674;48.048;8.306;2023-06-24T01:45:46;8.90;99.90
75091;DHT22;63674;48.048;8.306;2023-06-24T01:48:21;8.80;99.90
75091;DHT22;63674;48.048;8.306;2023-06-24T01:50:58;8.80;99.90
75091;DHT22;63674;48.048;8.306;2023-06-24T01:53:28;8.80;99.90
75091;DHT22;63674;48.048;8.306;2023-06-24T01:56:03;8.80;99.90
75091;DHT22;63674;48.048;8.306;2023-06-24T01:58:33;8.70;99.90
75091;DHT22;63674;48.048;8.306;2023-06-24T02:01:03;8.70;99.90
75091;DHT22;63674;48.048;8.306;2023-06-24T02:03:34;8.70;99.90
75091;DHT22;63674;48.048;8.306;2023-06-24T02:06:04;8.60;99.90
75091;DHT22;63674;48.048;8.306;2023-06-24T02:08:38;8.60;99.90
75091;DHT22;63674;48.048;8.306;2023-06-24T02:11:09;8.60;99.90
75091;DHT22;63674;48.048;8.306;2023-06-24T02:13:39;8.60;99.90
75091;DHT22;63674;48.048;8.306;2023-06-24T02:16:10;8.60;99.90
75091;DHT22;63674;48.048;8.306;2023-06-24T02:18:40;8.50;99.90
75091;DHT22;63674;48.048;8.306;2023-06-24T02:21:09;8.40;99.90
75091;DHT22;63674;48.048;8.306;2023-06-24T02:23:38;8.50;99.90
75091;DHT22;63674;48.048;8.306;2023-06-24T02:26:07;8.40;99.90
75091;DHT22;63674;48.048;8.306;2023-06-24T02:28:37;8.40;99.90
75091;DHT22;63674;48.048;8.306;2023-06-24T02:31:08;8.40;99.90
75091;DHT22;63674;48.048;8.306;2023-06-24T02:33:37;8.40;99.90
75091;DHT22;63674;48.048;8.306;2023-06-24T02:36:08;8.30;99.90
75091;DHT22;63674;48.048;8.306;2023-06-24T02:38:38;8.20;99.90
75091;DHT22;63674;48.048;8.306;2023-06-24T02:41:07;8.20;99.90
75091;DHT22;63674;48.048;8.306;2023-06-24T02:43:35;8.30;99.90
75091;DHT22;63674;48.048;8.306;2023-06-24T02:46:05;8.30;99.90
75091;DHT22;63674;48.048;8.306;2023-06-24T02:48:37;8.20;99.90
75091;DHT22;63674;48.048;8.306;2023-06-24T02:51:09;8.20;99.90
75091;DHT22;63674;48.048;8.306;2023-06-24T02:53:38;8.10;99.90
75091;DHT22;63674;48.048;8.306;2023-06-24T02:56:08;8.10;99.90
75091;DHT22;63674;48.048;8.306;2023-06-24T02:58:41;8.10;99.90
75091;DHT22;63674;48.048;8.306;2023-06-24T03:01:11;8.10;99.90
75091;DHT22;63674;48.048;8.306;2023-06-24T03:03:40;8.00;99.90
75091;DHT22;63674;48.048;8.306;2023-06-24T03:06:11;8.00;99.90
75091;DHT22;63674;48.048;8.306;2023-06-24T03:08:45;8.00;99.90
75091;DHT22;63674;48.048;8.306;2023-06-24T03:11:14;8.00;99.90
75091;DHT22;63674;48.048;8.306;2023-06-24T03:13:44;8.00;99.90
75091;DHT22;63674;48.048;8.306;2023-06-24T03:16:12;7.90;99.90
75091;DHT22;63674;48.048;8.306;2023-06-24T03:18:41;8.00;99.90
75091;DHT22;63674;48.048;8.306;2023-06-24T03:21:12;7.90;99.90
75091;DHT22;63674;48.048;8.306;2023-06-24T03:23:40;7.90;99.90
75091;DHT22;63674;48.048;8.306;2023-06-24T03:26:09;8.00;99.90
75091;DHT22;63674;48.048;8.306;2023-06-24T03:28:37;7.90;99.90
75091;DHT22;63674;48.048;8.306;2023-06-24T03:31:06;7.90;99.90
75091;DHT22;63674;48.048;8.306;2023-06-24T03:33:35;7.90;99.90
75091;DHT22;63674;48.048;8.306;2023-06-24T03:36:03;7.90;99.90
75091;DHT22;63674;48.048;8.306;2023-06-24T03:38:33;7.90;99.90
75091;DHT22;63674;48.048;8.306;2023-06-24T03:41:02;7.80;99.90
75091;DHT22;63674;48.048;8.306;2023-06-24T03:43:30;7.80;99.90
75091;DHT22;63674;48.048;8.306;2023-06-24T03:45:59;7.70;99.90
75091;DHT22;63674;48.048;8.306;2023-06-24T03:48:29;7.70;99.90
75091;DHT22;63674;48.048;8.306;2023-06-24T03:50:57;7.70;99.90
75091;DHT22;63674;48.048;8.306;2023-06-24T03:53:26;7.80;99.90
75091;DHT22;63674;48.048;8.306;2023-06-24T03:55:56;7.80;99.90
75091;DHT22;63674;48.048;8.306;2023-06-24T03:58:25;7.80;99.90
75091;DHT22;63674;48.048;8.306;2023-06-24T04:00:54;7.70;99.90
75091;DHT22;63674;48.048;8.306;2023-06-24T04:03:24;7.70;99.90
75091;DHT22;63674;48.048;8.306;2023-06-24T04:05:54;7.80;99.90
75091;DHT22;63674;48.048;8.306;2023-06-24T04:08:23;7.80;99.90
75091;DHT22;63674;48.048;8.306;2023-06-24T04:10:58;7.80;99.90
75091;DHT22;63674;48.048;8.306;2023-06-24T04:13:27;7.80;99.90
75091;DHT22;63674;48.048;8.306;2023-06-24T04:15:55;7.80;99.90
75091;DHT22;63674;48.048;8.306;2023-06-24T04:18:24;7.70;99.90
75091;DHT22;63674;48.048;8.306;2023-06-24T04:20:53;7.80;99.90
75091;DHT22;63674;48.048;8.306;2023-06-24T04:23:22;7.70;99.90
75091;DHT22;63674;48.048;8.306;2023-06-24T04:25:50;7.80;99.90
75091;DHT22;63674;48.048;8.306;2023-06-24T04:28:20;7.80;99.90
75091;DHT22;63674;48.048;8.306;2023-06-24T04:30:49;7.80;99.90
75091;DHT22;63674;48.048;8.306;2023-06-24T04:33:18;7.80;99.90
75091;DHT22;63674;48.048;8.306;2023-06-24T04:35:46;7.90;99.90
75091;DHT22;63674;48.048;8.306;2023-06-24T04:38:15;7.90;99.90
75091;DHT22;63674;48.048;8.306;2023-06-24T04:40:45;7.90;99.90
75091;DHT22;63674;48.048;8.306;2023-06-24T04:43:14;8.00;99.90
75091;DHT22;63674;48.048;8.306;2023-06-24T04:45:44;8.10;99.90
75091;DHT22;63674;48.048;8.306;2023-06-24T04:48:13;8.10;99.90
75091;DHT22;63674;48.048;8.306;2023-06-24T04:50:42;8.10;99.90
75091;DHT22;63674;48.048;8.306;2023-06-24T04:53:10;8.20;99.90
75091;DHT22;63674;48.048;8.306;2023-06-24T04:55:39;8.30;99.90
75091;DHT22;63674;48.048;8.306;2023-06-24T04:58:08;8.40;99.90
75091;DHT22;63674;48.048;8.306;2023-06-24T05:00:36;8.40;99.90
75091;DHT22;63674;48.048;8.306;2023-06-24T05:03:06;8.50;99.90
75091;DHT22;63674;48.048;8.306;2023-06-24T05:05:35;8.50;99.90
75091;DHT22;63674;48.048;8.306;2023-06-24T05:08:04;8.50;99.90
75091;DHT22;63674;48.048;8.306;2023-06-24T05:10:33;8.50;99.90
75091;DHT22;63674;48.048;8.306;2023-06-24T05:13:01;8.50;99.90
75091;DHT22;63674;48.048;8.306;2023-06-24T05:15:30;8.60;99.90
75091;DHT22;63674;48.048;8.306;2023-06-24T05:17:59;8.60;99.90
75091;DHT22;63674;48.048;8.306;2023-06-24T05:20:29;8.60;99.90
75091;DHT22;63674;48.048;8.306;2023-06-24T05:22:58;8.60;99.90
75091;DHT22;63674;48.048;8.306;2023-06-24T05:25:26;8.70;99.90
75091;DHT22;63674;48.048;8.306;2023-06-24T05:27:55;8.60;99.90
75091;DHT22;63674;48.048;8.306;2023-06-24T05:30:23;8.70;99.90
75091;DHT22;63674;48.048;8.306;2023-06-24T05:32:52;8.80;99.90
75091;DHT22;63674;48.048;8.306;2023-06-24T05:35:20;8.90;99.90
75091;DHT22;63674;48.048;8.306;2023-06-24T05:37:50;8.90;99.90
75091;DHT22;63674;48.048;8.306;2023-06-24T05:40:19;8.90;99.90
75091;DHT22;63674;48.048;8.306;2023-06-24T05:42:47;9.10;99.90
75091;DHT22;63674;48.048;8.306;2023-06-24T05:45:16;9.10;99.90
75091;DHT22;63674;48.048;8.306;2023-06-24T05:47:44;9.20;99.90
75091;DHT22;63674;48.048;8.306;2023-06-24T05:50:14;9.30;99.90
75091;DHT22;63674;48.048;8.306;2023-06-24T05:52:42;9.50;99.90
75091;DHT22;63674;48.048;8.306;2023-06-24T05:55:12;9.50;99.90
75091;DHT22;63674;48.048;8.306;2023-06-24T05:57:41;9.70;99.90
75091;DHT22;63674;48.048;8.306;2023-06-24T06:00:10;9.70;99.90
75091;DHT22;63674;48.048;8.306;2023-06-24T06:02:40;9.90;99.90
75091;DHT22;63674;48.048;8.306;2023-06-24T06:05:09;10.00;99.90
75091;DHT22;63674;48.048;8.306;2023-06-24T06:07:37;10.20;99.90
75091;DHT22;63674;48.048;8.306;2023-06-24T06:10:07;10.30;99.90
75091;DHT22;63674;48.048;8.306;2023-06-24T06:12:38;10.50;99.90
75091;DHT22;63674;48.048;8.306;2023-06-24T06:15:08;10.70;99.90
75091;DHT22;63674;48.048;8.306;2023-06-24T06:17:37;10.80;99.90
75091;DHT22;63674;48.048;8.306;2023-06-24T06:20:06;11.10;99.90
75091;DHT22;63674;48.048;8.306;2023-06-24T06:22:35;11.40;99.90
75091;DHT22;63674;48.048;8.306;2023-06-24T06:25:06;11.70;99.90
75091;DHT22;63674;48.048;8.306;2023-06-24T06:27:34;12.10;99.90
75091;DHT22;63674;48.048;8.306;2023-06-24T06:30:06;12.50;99.90
75091;DHT22;63674;48.048;8.306;2023-06-24T06:32:36;12.90;99.90
75091;DHT22;63674;48.048;8.306;2023-06-24T06:35:06;13.30;99.90
75091;DHT22;63674;48.048;8.306;2023-06-24T06:37:35;13.70;99.90
75091;DHT22;63674;48.048;8.306;2023-06-24T06:40:05;14.20;99.90
75091;DHT22;63674;48.048;8.306;2023-06-24T06:42:34;14.60;99.90
75091;DHT22;63674;48.048;8.306;2023-06-24T06:45:05;14.90;99.90
75091;DHT22;63674;48.048;8.306;2023-06-24T06:47:34;15.30;99.90
75091;DHT22;63674;48.048;8.306;2023-06-24T06:50:03;15.60;99.90
75091;DHT22;63674;48.048;8.306;2023-06-24T06:52:33;15.90;99.90
75091;DHT22;63674;48.048;8.306;2023-06-24T06:55:01;16.10;99.90
75091;DHT22;63674;48.048;8.306;2023-06-24T06:57:30;16.40;99.90
75091;DHT22;63674;48.048;8.306;2023-06-24T06:59:58;16.60;99.90
75091;DHT22;63674;48.048;8.306;2023-06-24T07:02:28;17.00;99.90
75091;DHT22;63674;48.048;8.306;2023-06-24T07:04:57;17.40;99.90
75091;DHT22;63674;48.048;8.306;2023-06-24T07:07:26;17.70;99.90
75091;DHT22;63674;48.048;8.306;2023-06-24T07:09:55;18.00;99.90
75091;DHT22;63674;48.048;8.306;2023-06-24T07:12:23;18.30;99.90
75091;DHT22;63674;48.048;8.306;2023-06-24T07:14:52;18.50;99.90
75091;DHT22;63674;48.048;8.306;2023-06-24T07:17:20;18.80;99.90
75091;DHT22;63674;48.048;8.306;2023-06-24T07:19:50;19.30;99.90
75091;DHT22;63674;48.048;8.306;2023-06-24T07:22:19;19.40;99.90
75091;DHT22;63674;48.048;8.306;2023-06-24T07:24:48;19.80;99.90
75091;DHT22;63674;48.048;8.306;2023-06-24T07:27:16;20.20;99.90
75091;DHT22;63674;48.048;8.306;2023-06-24T07:29:45;20.30;99.90
75091;DHT22;63674;48.048;8.306;2023-06-24T07:32:13;20.70;99.90
75091;DHT22;63674;48.048;8.306;2023-06-24T07:34:42;21.10;99.90
75091;DHT22;63674;48.048;8.306;2023-06-24T07:37:12;21.20;99.90
75091;DHT22;63674;48.048;8.306;2023-06-24T07:39:50;21.60;99.90
75091;DHT22;63674;48.048;8.306;2023-06-24T07:42:19;21.90;99.90
75091;DHT22;63674;48.048;8.306;2023-06-24T07:44:48;21.80;91.20
75091;DHT22;63674;48.048;8.306;2023-06-24T07:47:17;21.80;95.10
75091;DHT22;63674;48.048;8.306;2023-06-24T07:49:46;22.00;92.90
75091;DHT22;63674;48.048;8.306;2023-06-24T07:52:16;22.20;95.00
75091;DHT22;63674;48.048;8.306;2023-06-24T07:54:45;22.30;90.70
75091;DHT22;63674;48.048;8.306;2023-06-24T07:57:14;22.60;93.10
75091;DHT22;63674;48.048;8.306;2023-06-24T07:59:42;22.80;85.10
75091;DHT22;63674;48.048;8.306;2023-06-24T08:02:11;23.10;81.70
75091;DHT22;63674;48.048;8.306;2023-06-24T08:04:40;23.40;69.60
75091;DHT22;63674;48.048;8.306;2023-06-24T08:07:09;23.40;69.70
75091;DHT22;63674;48.048;8.306;2023-06-24T08:09:39;23.50;71.40
75091;DHT22;63674;48.048;8.306;2023-06-24T08:12:08;23.50;80.30
75091;DHT22;63674;48.048;8.306;2023-06-24T08:14:37;23.50;67.40
75091;DHT22;63674;48.048;8.306;2023-06-24T08:17:06;23.60;57.90
75091;DHT22;63674;48.048;8.306;2023-06-24T08:19:34;23.70;59.70
75091;DHT22;63674;48.048;8.306;2023-06-24T08:22:03;23.90;69.00
75091;DHT22;63674;48.048;8.306;2023-06-24T08:24:32;24.00;54.90
75091;DHT22;63674;48.048;8.306;2023-06-24T08:27:02;23.90;58.80
75091;DHT22;63674;48.048;8.306;2023-06-24T08:29:32;23.90;61.90
75091;DHT22;63674;48.048;8.306;2023-06-24T08:32:00;24.10;68.40
75091;DHT22;63674;48.048;8.306;2023-06-24T08:34:29;24.30;57.60
75091;DHT22;63674;48.048;8.306;2023-06-24T08:36:58;24.40;57.60
75091;DHT22;63674;48.048;8.306;2023-06-24T08:39:26;24.50;56.40
75091;DHT22;63674;48.048;8.306;2023-06-24T08:41:55;24.60;59.20
75091;DHT22;63674;48.048;8.306;2023-06-24T08:44:24;25.10;61.30
75091;DHT22;63674;48.048;8.306;2023-06-24T08:46:53;25.40;59.30
75091;DHT22;63674;48.048;8.306;2023-06-24T08:49:28;25.50;55.20
75091;DHT22;63674;48.048;8.306;2023-06-24T08:52:02;25.40;48.80
75091;DHT22;63674;48.048;8.306;2023-06-24T08:54:35;25.40;53.50
75091;DHT22;63674;48.048;8.306;2023-06-24T08:57:06;25.20;46.90
75091;DHT22;63674;48.048;8.306;2023-06-24T08:59:39;24.90;50.70
75091;DHT22;63674;48.048;8.306;2023-06-24T09:02:07;24.80;51.10
75091;DHT22;63674;48.048;8.306;2023-06-24T09:04:36;24.60;53.90
75091;DHT22;63674;48.048;8.306;2023-06-24T09:07:05;24.40;47.80
75091;DHT22;63674;48.048;8.306;2023-06-24T09:09:42;24.30;54.00
75091;DHT22;63674;48.048;8.306;2023-06-24T09:12:14;24.30;51.10
75091;DHT22;63674;48.048;8.306;2023-06-24T09:14:48;24.00;49.20
75091;DHT22;63674;48.048;8.306;2023-06-24T09:17:17;23.70;53.00
75091;DHT22;63674;48.048;8.306;2023-06-24T09:19:49;23.70;55.90
75091;DHT22;63674;48.048;8.306;2023-06-24T09:22:19;24.10;59.70
75091;DHT22;63674;48.048;8.306;2023-06-24T09:24:48;24.60;55.70
75091;DHT22;63674;48.048;8.306;2023-06-24T09:27:17;24.60;47.30
75091;DHT22;63674;48.048;8.306;2023-06-24T09:29:50;24.70;46.90
75091;DHT22;63674;48.048;8.306;2023-06-24T09:32:18;24.70;44.30
75091;DHT22;63674;48.048;8.306;2023-06-24T09:34:47;24.50;47.50
75091;DHT22;63674;48.048;8.306;2023-06-24T09:37:21;24.80;48.40
75091;DHT22;63674;48.048;8.306;2023-06-24T09:39:50;24.90;44.00
75091;DHT22;63674;48.048;8.306;2023-06-24T09:42:21;24.80;45.30
75091;DHT22;63674;48.048;8.306;2023-06-24T09:44:55;24.90;49.90
75091;DHT22;63674;48.048;8.306;2023-06-24T09:47:24;25.20;51.40
75091;DHT22;63674;48.048;8.306;2023-06-24T09:49:54;25.40;44.30
75091;DHT22;63674;48.048;8.306;2023-06-24T09:52:23;25.40;45.00
75091;DHT22;63674;48.048;8.306;2023-06-24T09:54:54;25.00;46.70
75091;DHT22;63674;48.048;8.306;2023-06-24T09:57:26;25.00;50.50
75091;DHT22;63674;48.048;8.306;2023-06-24T09:59:59;25.20;47.70
75091;DHT22;63674;48.048;8.306;2023-06-24T10:02:29;25.40;45.90
75091;DHT22;63674;48.048;8.306;2023-06-24T10:05:00;25.40;45.70
75091;DHT22;63674;48.048;8.306;2023-06-24T10:07:29;25.70;46.80
75091;DHT22;63674;48.048;8.306;2023-06-24T10:09:58;25.40;47.90
75091;DHT22;63674;48.048;8.306;2023-06-24T10:12:27;25.20;46.20
75091;DHT22;63674;48.048;8.306;2023-06-24T10:14:55;25.10;46.10
75091;DHT22;63674;48.048;8.306;2023-06-24T10:17:25;25.00;43.80
75091;DHT22;63674;48.048;8.306;2023-06-24T10:19:54;24.60;44.00
75091;DHT22;63674;48.048;8.306;2023-06-24T10:22:23;24.30;47.60
75091;DHT22;63674;48.048;8.306;2023-06-24T10:24:53;24.40;48.70
75091;DHT22;63674;48.048;8.306;2023-06-24T10:27:22;24.70;49.50
75091;DHT22;63674;48.048;8.306;2023-06-24T10:29:52;24.30;49.00
75091;DHT22;63674;48.048;8.306;2023-06-24T10:32:24;23.90;48.70
75091;DHT22;63674;48.048;8.306;2023-06-24T10:34:54;23.80;50.90
75091;DHT22;63674;48.048;8.306;2023-06-24T10:37:25;23.60;52.30
75091;DHT22;63674;48.048;8.306;2023-06-24T10:39:55;23.40;58.50
75091;DHT22;63674;48.048;8.306;2023-06-24T10:42:42;23.40;55.00
75091;DHT22;63674;48.048;8.306;2023-06-24T10:45:18;24.00;52.60
75091;DHT22;63674;48.048;8.306;2023-06-24T10:47:50;24.40;47.70
75091;DHT22;63674;48.048;8.306;2023-06-24T10:50:21;24.10;45.70
75091;DHT22;63674;48.048;8.306;2023-06-24T10:52:52;23.80;50.70
75091;DHT22;63674;48.048;8.306;2023-06-24T10:55:23;23.80;48.60
75091;DHT22;63674;48.048;8.306;2023-06-24T10:57:53;23.60;48.00
75091;DHT22;63674;48.048;8.306;2023-06-24T11:00:22;23.90;48.40
75091;DHT22;63674;48.048;8.306;2023-06-24T11:02:52;24.20;51.60
75091;DHT22;63674;48.048;8.306;2023-06-24T11:05:21;24.50;50.10
75091;DHT22;63674;48.048;8.306;2023-06-24T11:07:49;24.70;44.90
75091;DHT22;63674;48.048;8.306;2023-06-24T11:10:18;24.70;43.90
75091;DHT22;63674;48.048;8.306;2023-06-24T11:12:47;24.80;46.80
75091;DHT22;63674;48.048;8.306;2023-06-24T11:15:15;25.20;48.10
75091;DHT22;63674;48.048;8.306;2023-06-24T11:17:45;25.10;49.10
75091;DHT22;63674;48.048;8.306;2023-06-24T11:20:14;25.00;48.90
75091;DHT22;63674;48.048;8.306;2023-06-24T11:22:44;24.80;48.00
75091;DHT22;63674;48.048;8.306;2023-06-24T11:25:16;24.70;49.30
75091;DHT22;63674;48.048;8.306;2023-06-24T11:27:45;24.70;49.20
75091;DHT22;63674;48.048;8.306;2023-06-24T11:30:16;25.00;45.70
75091;DHT22;63674;48.048;8.306;2023-06-24T11:32:45;24.50;48.00
75091;DHT22;63674;48.048;8.306;2023-06-24T11:35:16;24.20;45.40
75091;DHT22;63674;48.048;8.306;2023-06-24T11:37:46;24.10;47.00
75091;DHT22;63674;48.048;8.306;2023-06-24T11:40:18;23.90;46.50
75091;DHT22;63674;48.048;8.306;2023-06-24T11:42:48;24.10;50.00
75091;DHT22;63674;48.048;8.306;2023-06-24T11:45:21;24.20;48.90
75091;DHT22;63674;48.048;8.306;2023-06-24T11:47:50;24.30;45.80
75091;DHT22;63674;48.048;8.306;2023-06-24T11:50:25;24.40;46.90
75091;DHT22;63674;48.048;8.306;2023-06-24T11:52:55;24.80;48.00
75091;DHT22;63674;48.048;8.306;2023-06-24T11:55:25;25.10;45.70
75091;DHT22;63674;48.048;8.306;2023-06-24T11:57:56;25.50;45.20
75091;DHT22;63674;48.048;8.306;2023-06-24T12:00:28;25.60;41.90
75091;DHT22;63674;48.048;8.306;2023-06-24T12:03:00;25.80;42.60
75091;DHT22;63674;48.048;8.306;2023-06-24T12:05:32;25.90;40.50
75091;DHT22;63674;48.048;8.306;2023-06-24T12:08:04;25.90;37.00
75091;DHT22;63674;48.048;8.306;2023-06-24T12:10:34;25.70;37.70
75091;DHT22;63674;48.048;8.306;2023-06-24T12:13:04;25.70;41.40
75091;DHT22;63674;48.048;8.306;2023-06-24T12:15:33;25.80;39.10
75091;DHT22;63674;48.048;8.306;2023-06-24T12:18:03;25.50;41.20
75091;DHT22;63674;48.048;8.306;2023-06-24T12:20:34;25.40;39.50
75091;DHT22;63674;48.048;8.306;2023-06-24T12:23:05;25.50;40.90
75091;DHT22;63674;48.048;8.306;2023-06-24T12:25:34;25.60;40.60
75091;DHT22;63674;48.048;8.306;2023-06-24T12:28:03;25.80;39.00
75091;DHT22;63674;48.048;8.306;2023-06-24T12:30:32;25.80;37.00
75091;DHT22;63674;48.048;8.306;2023-06-24T12:33:01;25.80;40.10
75091;DHT22;63674;48.048;8.306;2023-06-24T12:35:31;26.00;39.90
75091;DHT22;63674;48.048;8.306;2023-06-24T12:38:00;26.30;41.80
75091;DHT22;63674;48.048;8.306;2023-06-24T12:40:29;26.20;39.50
75091;DHT22;63674;48.048;8.306;2023-06-24T12:42:58;25.90;42.20
75091;DHT22;63674;48.048;8.306;2023-06-24T12:45:27;25.80;41.10
75091;DHT22;63674;48.048;8.306;2023-06-24T12:47:55;25.80;41.30
75091;DHT22;63674;48.048;8.306;2023-06-24T12:50:24;26.00;41.40
75091;DHT22;63674;48.048;8.306;2023-06-24T12:52:52;26.30;40.50
75091;DHT22;63674;48.048;8.306;2023-06-24T12:55:22;26.30;40.20
75091;DHT22;63674;48.048;8.306;2023-06-24T12:57:51;26.40;39.10
75091;DHT22;63674;48.048;8.306;2023-06-24T13:00:20;26.50;40.40
75091;DHT22;63674;48.048;8.306;2023-06-24T13:02:50;26.40;40.90
75091;DHT22;63674;48.048;8.306;2023-06-24T13:05:19;26.30;37.50
75091;DHT22;63674;48.048;8.306;2023-06-24T13:07:48;26.30;41.10
75091;DHT22;63674;48.048;8.306;2023-06-24T13:10:16;26.40;38.40
75091;DHT22;63674;48.048;8.306;2023-06-24T13:12:47;26.20;39.60
75091;DHT22;63674;48.048;8.306;2023-06-24T13:15:18;26.00;37.10
75091;DHT22;63674;48.048;8.306;2023-06-24T13:17:47;25.70;40.70
75091;DHT22;63674;48.048;8.306;2023-06-24T13:20:15;26.10;40.30
75091;DHT22;63674;48.048;8.306;2023-06-24T13:22:44;26.30;41.50
75091;DHT22;63674;48.048;8.306;2023-06-24T13:25:13;26.10;37.40
75091;DHT22;63674;48.048;8.306;2023-06-24T13:27:43;26.00;39.60
75091;DHT22;63674;48.048;8.306;2023-06-24T13:30:14;26.00;38.80
75091;DHT22;63674;48.048;8.306;2023-06-24T13:32:43;26.40;40.80
75091;DHT22;63674;48.048;8.306;2023-06-24T13:35:12;26.40;37.50
75091;DHT22;63674;48.048;8.306;2023-06-24T13:37:41;26.40;39.20
75091;DHT22;63674;48.048;8.306;2023-06-24T13:40:11;26.50;40.20
75091;DHT22;63674;48.048;8.306;2023-06-24T13:42:39;26.40;35.80
75091;DHT22;63674;48.048;8.306;2023-06-24T13:45:08;26.20;36.70
75091;DHT22;63674;48.048;8.306;2023-06-24T13:47:39;26.20;39.80
75091;DHT22;63674;48.048;8.306;2023-06-24T13:50:08;26.00;36.50
75091;DHT22;63674;48.048;8.306;2023-06-24T13:52:38;25.80;35.70
75091;DHT22;63674;48.048;8.306;2023-06-24T13:55:07;25.80;35.50
75091;DHT22;63674;48.048;8.306;2023-06-24T13:57:36;25.80;35.80
75091;DHT22;63674;48.048;8.306;2023-06-24T14:00:05;25.80;37.20
75091;DHT22;63674;48.048;8.306;2023-06-24T14:02:35;25.90;38.10
75091;DHT22;63674;48.048;8.306;2023-06-24T14:05:06;25.90;38.50
75091;DHT22;63674;48.048;8.306;2023-06-24T14:07:35;26.20;38.40
75091;DHT22;63674;48.048;8.306;2023-06-24T14:10:05;26.30;38.00
75091;DHT22;63674;48.048;8.306;2023-06-24T14:12:34;26.30;36.20
75091;DHT22;63674;48.048;8.306;2023-06-24T14:15:05;26.20;35.30
75091;DHT22;63674;48.048;8.306;2023-06-24T14:17:34;26.00;37.10
75091;DHT22;63674;48.048;8.306;2023-06-24T14:20:03;26.30;38.40
75091;DHT22;63674;48.048;8.306;2023-06-24T14:22:34;26.40;39.10
75091;DHT22;63674;48.048;8.306;2023-06-24T14:25:03;26.40;35.10
75091;DHT22;63674;48.048;8.306;2023-06-24T14:27:33;26.10;35.70
75091;DHT22;63674;48.048;8.306;2023-06-24T14:30:01;25.70;34.00
75091;DHT22;63674;48.048;8.306;2023-06-24T14:32:30;25.50;34.70
75091;DHT22;63674;48.048;8.306;2023-06-24T14:34:58;25.70;38.00
75091;DHT22;63674;48.048;8.306;2023-06-24T14:37:27;25.90;39.00
75091;DHT22;63674;48.048;8.306;2023-06-24T14:39:57;26.10;37.80
75091;DHT22;63674;48.048;8.306;2023-06-24T14:42:26;26.30;38.10
75091;DHT22;63674;48.048;8.306;2023-06-24T14:44:54;26.40;38.40
75091;DHT22;63674;48.048;8.306;2023-06-24T14:47:23;26.50;37.30
75091;DHT22;63674;48.048;8.306;2023-06-24T14:49:51;26.60;37.30
75091;DHT22;63674;48.048;8.306;2023-06-24T14:52:20;26.60;35.10
75091;DHT22;63674;48.048;8.306;2023-06-24T14:54:49;26.40;34.80
75091;DHT22;63674;48.048;8.306;2023-06-24T14:57:19;26.30;36.70
75091;DHT22;63674;48.048;8.306;2023-06-24T14:59:50;26.30;35.60
75091;DHT22;63674;48.048;8.306;2023-06-24T15:02:19;26.20;36.70
75091;DHT22;63674;48.048;8.306;2023-06-24T15:04:48;26.30;36.50
75091;DHT22;63674;48.048;8.306;2023-06-24T15:07:16;26.20;32.30
75091;DHT22;63674;48.048;8.306;2023-06-24T15:09:45;25.70;30.60
75091;DHT22;63674;48.048;8.306;2023-06-24T15:12:13;25.40;32.90
75091;DHT22;63674;48.048;8.306;2023-06-24T15:14:43;25.50;33.30
75091;DHT22;63674;48.048;8.306;2023-06-24T15:17:13;25.40;33.40
75091;DHT22;63674;48.048;8.306;2023-06-24T15:19:42;25.20;36.60
75091;DHT22;63674;48.048;8.306;2023-06-24T15:22:10;25.30;36.60
75091;DHT22;63674;48.048;8.306;2023-06-24T15:24:39;25.40;35.80
75091;DHT22;63674;48.048;8.306;2023-06-24T15:27:07;25.40;36.70
75091;DHT22;63674;48.048;8.306;2023-06-24T15:29:36;25.10;34.70
75091;DHT22;63674;48.048;8.306;2023-06-24T15:32:06;24.90;35.60
75091;DHT22;63674;48.048;8.306;2023-06-24T15:34:36;24.60;35.30
75091;DHT22;63674;48.048;8.306;2023-06-24T15:37:05;24.70;38.80
75091;DHT22;63674;48.048;8.306;2023-06-24T15:39:34;24.70;36.90
75091;DHT22;63674;48.048;8.306;2023-06-24T15:42:03;24.90;38.50
75091;DHT22;63674;48.048;8.306;2023-06-24T15:44:32;24.80;37.20
75091;DHT22;63674;48.048;8.306;2023-06-24T15:47:00;24.80;38.40
75091;DHT22;63674;48.048;8.306;2023-06-24T15:49:31;24.90;38.40
75091;DHT22;63674;48.048;8.306;2023-06-24T15:51:59;24.70;37.60
75091;DHT22;63674;48.048;8.306;2023-06-24T15:54:28;24.40;36.70